createdAt,value
2024-02-18T00:00:20.690Z,445.6
2024-02-18T00:01:23.282Z,445.7
2024-02-18T00:02:25.193Z,445.7
2024-02-18T00:03:27.575Z,445.6
2024-02-18T00:04:30.281Z,445.5
2024-02-18T00:05:32.271Z,445.4
2024-02-18T00:06:34.459Z,445.6
2024-02-18T00:07:36.768Z,445.7
2024-02-18T00:08:38.576Z,445.6
2024-02-18T00:09:40.687Z,445.7
2024-02-18T00:10:42.482Z,445.6
2024-02-18T00:11:44.197Z,445.5
2024-02-18T00:12:46.371Z,445.7
2024-02-18T00:13:48.447Z,445.8
2024-02-18T00:14:50.259Z,445.8
2024-02-18T00:15:52.483Z,445.9
2024-02-18T00:16:54.282Z,446
2024-02-18T00:17:56.414Z,445.8
2024-02-18T00:18:58.795Z,446
2024-02-18T00:20:01.452Z,445.6
2024-02-18T00:21:03.446Z,446
2024-02-18T00:22:05.793Z,445.5
2024-02-18T00:23:07.700Z,445.7
2024-02-18T00:24:09.575Z,445.7
2024-02-18T00:25:11.825Z,445.7
2024-02-18T00:26:13.813Z,445.5
2024-02-18T00:27:15.620Z,446
2024-02-18T00:28:17.372Z,446
2024-02-18T00:29:19.067Z,445.9
2024-02-18T00:30:21.047Z,446.2
2024-02-18T00:31:22.869Z,446.2
2024-02-18T00:32:24.680Z,446.5
2024-02-18T00:33:27.139Z,446.1
2024-02-18T00:34:30.320Z,446.1
2024-02-18T00:35:32.295Z,446.1
2024-02-18T00:36:34.397Z,445.9
2024-02-18T00:37:36.559Z,446.3
2024-02-18T00:38:38.451Z,446
2024-02-18T00:39:40.304Z,446.1
2024-02-18T00:40:42.107Z,445.9
2024-02-18T00:41:43.942Z,446.6
2024-02-18T00:42:46.024Z,446.3
2024-02-18T00:43:47.816Z,445.8
2024-02-18T00:44:49.707Z,446
2024-02-18T00:45:51.779Z,446.1
2024-02-18T00:47:06.906Z,446.1
2024-02-18T00:48:09.533Z,445.9
2024-02-18T00:49:12.460Z,446
2024-02-18T00:50:14.446Z,446.3
2024-02-18T00:51:16.224Z,446.3
2024-02-18T00:52:18.036Z,446.2
2024-02-18T00:53:19.830Z,446.4
2024-02-18T00:54:21.904Z,446.4
2024-02-18T00:55:23.874Z,446.1
2024-02-18T00:56:25.681Z,446.4
2024-02-18T00:57:27.717Z,446.4
2024-02-18T00:58:29.478Z,446.4
2024-02-18T00:59:31.268Z,446.6
2024-02-18T01:00:33.931Z,446.7
2024-02-18T01:01:36.522Z,446.2
2024-02-18T01:02:38.546Z,446.3
2024-02-18T01:03:40.563Z,446.2
2024-02-18T01:04:42.664Z,446.1
2024-02-18T01:05:44.853Z,446.4
2024-02-18T01:06:47.128Z,446.8
2024-02-18T01:07:48.981Z,446.2
2024-02-18T01:08:50.999Z,446.5
2024-02-18T01:09:53.553Z,446.4
2024-02-18T01:10:55.613Z,446.5
2024-02-18T01:11:57.537Z,446.7
2024-02-18T01:12:59.738Z,446.9
2024-02-18T01:14:01.560Z,447
2024-02-18T01:15:03.366Z,446.8
2024-02-18T01:16:05.568Z,446.8
2024-02-18T01:17:07.587Z,446.8
2024-02-18T01:18:09.989Z,446.9
2024-02-18T01:19:13.148Z,447.1
2024-02-18T01:20:15.195Z,446.9
2024-02-18T01:21:16.956Z,447.3
2024-02-18T01:22:18.707Z,447.1
2024-02-18T01:23:20.533Z,447.1
2024-02-18T01:24:22.712Z,447.1
2024-02-18T01:25:24.560Z,447.1
2024-02-18T01:26:26.272Z,447.1
2024-02-18T01:27:28.316Z,447.1
2024-02-18T01:28:30.107Z,447
2024-02-18T01:29:31.877Z,447.4
2024-02-18T01:30:33.992Z,447.4
2024-02-18T01:31:35.775Z,447.1
2024-02-18T01:32:37.846Z,447.2
2024-02-18T01:33:39.934Z,447.2
2024-02-18T01:34:41.894Z,447.7
2024-02-18T01:35:43.786Z,447.9
2024-02-18T01:36:45.702Z,447.5
2024-02-18T01:37:47.464Z,447.3
2024-02-18T01:38:49.404Z,447.9
2024-02-18T01:39:51.375Z,447.8
2024-02-18T01:40:53.259Z,447.8
2024-02-18T01:41:55.025Z,447.7
2024-02-18T01:42:57.317Z,447.6
2024-02-18T01:43:59.128Z,447.7
2024-02-18T01:45:00.957Z,447.7
2024-02-18T01:46:03.309Z,447.5
2024-02-18T01:47:05.232Z,447.6
2024-02-18T01:48:07.938Z,447.3
2024-02-18T01:49:10.886Z,447.3
2024-02-18T01:50:14.162Z,447.2
2024-02-18T01:51:16.121Z,447.4
2024-02-18T01:52:17.884Z,447.4
2024-02-18T01:53:19.678Z,447.4
2024-02-18T01:54:21.863Z,447.2
2024-02-18T01:55:23.749Z,447.3
2024-02-18T01:56:25.542Z,447.6
2024-02-18T01:57:27.369Z,447.1
2024-02-18T01:58:29.067Z,447.3
2024-02-18T01:59:30.837Z,447.2
2024-02-18T02:00:33.179Z,447.1
2024-02-18T02:01:35.955Z,446.6
2024-02-18T02:02:37.897Z,446.8
2024-02-18T02:03:40.322Z,446.8
2024-02-18T02:04:43.158Z,446.6
2024-02-18T02:05:45.312Z,446.5
2024-02-18T02:06:47.425Z,446.7
2024-02-18T02:07:49.328Z,446.7
2024-02-18T02:08:51.518Z,446.7
2024-02-18T02:09:53.662Z,446.2
2024-02-18T02:10:55.753Z,446.4
2024-02-18T02:11:57.655Z,446.2
2024-02-18T02:12:59.928Z,446.2
2024-02-18T02:14:01.657Z,446.6
2024-02-18T02:15:03.417Z,446.3
2024-02-18T02:16:05.898Z,446.3
2024-02-18T02:17:07.797Z,446.8
2024-02-18T02:18:10.045Z,446.4
2024-02-18T02:19:12.710Z,446.1
2024-02-18T02:20:14.975Z,446.5
2024-02-18T02:21:16.898Z,446
2024-02-18T02:22:18.692Z,446
2024-02-18T02:23:20.465Z,445.6
2024-02-18T02:24:22.627Z,445.2
2024-02-18T02:25:24.725Z,445.6
2024-02-18T02:26:26.550Z,445.5
2024-02-18T02:27:28.418Z,445.6
2024-02-18T02:28:30.226Z,445.3
2024-02-18T02:29:31.965Z,445.5
2024-02-18T02:30:33.940Z,445.2
2024-02-18T02:31:35.905Z,445.4
2024-02-18T02:32:38.329Z,444.7
2024-02-18T02:33:40.418Z,445.1
2024-02-18T02:34:42.567Z,444.7
2024-02-18T02:35:44.474Z,444.8
2024-02-18T02:36:46.496Z,444.6
2024-02-18T02:37:48.342Z,444.9
2024-02-18T02:38:50.458Z,444.6
2024-02-18T02:39:52.773Z,444.3
2024-02-18T02:40:54.660Z,444.8
2024-02-18T02:41:56.394Z,444.4
2024-02-18T02:42:58.403Z,444.6
2024-02-18T02:44:00.270Z,445
2024-02-18T02:45:02.073Z,444.9
2024-02-18T02:46:04.316Z,444
2024-02-18T02:47:06.197Z,444.5
2024-02-18T02:48:08.551Z,444.5
2024-02-18T02:49:11.198Z,444.3
2024-02-18T02:50:13.194Z,444.5
2024-02-18T02:51:14.905Z,444
2024-02-18T02:52:16.669Z,444.3
2024-02-18T02:53:19.032Z,444.4
2024-02-18T02:54:21.019Z,444
2024-02-18T02:55:22.849Z,444.5
2024-02-18T02:56:24.681Z,443.8
2024-02-18T02:57:26.768Z,444
2024-02-18T02:58:28.585Z,444.4
2024-02-18T02:59:30.420Z,444.7
2024-02-18T03:00:32.652Z,443.8
2024-02-18T03:01:35.477Z,444.2
2024-02-18T03:02:37.356Z,444.6
2024-02-18T03:03:39.655Z,444.2
2024-02-18T03:04:42.140Z,444.4
2024-02-18T03:05:44.342Z,444.2
2024-02-18T03:06:46.450Z,444.7
2024-02-18T03:07:48.302Z,444.1
2024-02-18T03:08:50.082Z,444.2
2024-02-18T03:09:52.161Z,443.6
2024-02-18T03:10:54.183Z,444.6
2024-02-18T03:11:56.492Z,444.3
2024-02-18T03:12:58.636Z,444.5
2024-02-18T03:14:00.547Z,444.4
2024-02-18T03:15:02.380Z,444.2
2024-02-18T03:16:04.561Z,443.7
2024-02-18T03:17:06.441Z,444
2024-02-18T03:18:08.587Z,444.3
2024-02-18T03:19:10.951Z,444.2
2024-02-18T03:20:13.642Z,444.1
2024-02-18T03:21:15.599Z,444.2
2024-02-18T03:22:17.355Z,444.4
2024-02-18T03:23:19.150Z,444.3
2024-02-18T03:24:21.406Z,444.3
2024-02-18T03:25:23.361Z,443.8
2024-02-18T03:26:25.108Z,444.1
2024-02-18T03:27:27.512Z,444.1
2024-02-18T03:28:29.425Z,444.1
2024-02-18T03:29:31.196Z,443.5
2024-02-18T03:30:33.259Z,444.1
2024-02-18T03:31:35.015Z,443.7
2024-02-18T03:32:37.612Z,443.6
2024-02-18T03:33:39.950Z,443
2024-02-18T03:34:42.442Z,443.2
2024-02-18T03:35:44.385Z,442.9
2024-02-18T03:36:46.504Z,442.6
2024-02-18T03:37:48.346Z,442.7
2024-02-18T03:38:50.434Z,442.7
2024-02-18T03:39:52.551Z,442.1
2024-02-18T03:40:54.382Z,441.9
2024-02-18T03:41:56.137Z,442
2024-02-18T03:42:58.422Z,441.9
2024-02-18T03:44:00.309Z,441.9
2024-02-18T03:45:02.161Z,441.6
2024-02-18T03:46:04.710Z,442
2024-02-18T03:47:06.534Z,441.6
2024-02-18T03:48:08.882Z,441.7
2024-02-18T03:49:11.295Z,441.7
2024-02-18T03:50:13.346Z,441.9
2024-02-18T03:51:15.245Z,441.7
2024-02-18T03:52:17.002Z,442.2
2024-02-18T03:53:18.754Z,442.1
2024-02-18T03:54:21.149Z,442.2
2024-02-18T03:55:23.001Z,442.1
2024-02-18T03:56:24.747Z,442.6
2024-02-18T03:57:26.708Z,442.7
2024-02-18T03:58:29.271Z,442.6
2024-02-18T03:59:31.146Z,442.9
2024-02-18T04:00:33.713Z,442.3
2024-02-18T04:01:36.537Z,442.3
2024-02-18T04:02:38.507Z,442.5
2024-02-18T04:03:40.876Z,442.5
2024-02-18T04:04:43.273Z,442.3
2024-02-18T04:05:46.090Z,442.4
2024-02-18T04:06:48.094Z,442.4
2024-02-18T04:07:49.849Z,442
2024-02-18T04:08:52.029Z,441.8
2024-02-18T04:09:54.215Z,441.7
2024-02-18T04:10:56.081Z,441.8
2024-02-18T04:11:58.345Z,441.8
2024-02-18T04:13:00.716Z,441.6
2024-02-18T04:14:02.762Z,441.7
2024-02-18T04:15:04.657Z,441.8
2024-02-18T04:16:07.053Z,441.4
2024-02-18T04:17:08.978Z,441.5
2024-02-18T04:18:11.509Z,441.6
2024-02-18T04:19:14.103Z,441.5
2024-02-18T04:20:16.062Z,441.4
2024-02-18T04:21:18.129Z,441.5
2024-02-18T04:22:19.925Z,441.3
2024-02-18T04:23:21.695Z,441.5
2024-02-18T04:24:23.788Z,441.4
2024-02-18T04:25:25.540Z,441.3
2024-02-18T04:26:27.350Z,441.6
2024-02-18T04:27:29.490Z,441.5
2024-02-18T04:28:31.264Z,441.6
2024-02-18T04:29:33.457Z,441.9
2024-02-18T04:30:35.667Z,442.2
2024-02-18T04:31:37.468Z,441.8
2024-02-18T04:32:39.545Z,442.4
2024-02-18T04:33:42.620Z,442.5
2024-02-18T04:34:45.080Z,442.3
2024-02-18T04:35:47.008Z,442.9
2024-02-18T04:36:49.502Z,442.7
2024-02-18T04:37:51.423Z,442.6
2024-02-18T04:38:53.195Z,442.9
2024-02-18T04:39:55.333Z,442.6
2024-02-18T04:40:57.187Z,442.3
2024-02-18T04:41:58.960Z,442.4
2024-02-18T04:43:01.430Z,442.5
2024-02-18T04:44:03.320Z,443.2
2024-02-18T04:45:05.242Z,442.9
2024-02-18T04:46:07.423Z,442.9
2024-02-18T04:47:09.201Z,442.9
2024-02-18T04:48:11.679Z,443.1
2024-02-18T04:49:14.156Z,443.2
2024-02-18T04:50:16.006Z,443.6
2024-02-18T04:51:17.874Z,443
2024-02-18T04:52:19.711Z,442.5
2024-02-18T04:53:21.560Z,442.8
2024-02-18T04:54:23.675Z,442.9
2024-02-18T04:55:25.479Z,442.5
2024-02-18T04:56:27.266Z,442.4
2024-02-18T04:57:29.350Z,442.7
2024-02-18T04:58:31.148Z,442.5
2024-02-18T04:59:32.946Z,442.3
2024-02-18T05:00:35.352Z,442.4
2024-02-18T05:01:37.789Z,441.9
2024-02-18T05:02:39.936Z,442.3
2024-02-18T05:03:41.947Z,442.3
2024-02-18T05:04:43.785Z,441.9
2024-02-18T05:05:46.029Z,442.4
2024-02-18T05:06:47.934Z,442.3
2024-02-18T05:07:49.992Z,441.7
2024-02-18T05:08:52.003Z,442
2024-02-18T05:09:54.135Z,442
2024-02-18T05:10:56.264Z,442
2024-02-18T05:11:58.017Z,441.9
2024-02-18T05:13:00.284Z,441.9
2024-02-18T05:14:02.295Z,441.7
2024-02-18T05:15:04.135Z,441.9
2024-02-18T05:16:06.469Z,441.9
2024-02-18T05:17:08.256Z,441.8
2024-02-18T05:18:11.138Z,441.9
2024-02-18T05:19:13.867Z,441.3
2024-02-18T05:20:15.909Z,441
2024-02-18T05:21:17.673Z,440.8
2024-02-18T05:22:19.526Z,440.4
2024-02-18T05:23:21.312Z,440.5
2024-02-18T05:24:23.202Z,440.5
2024-02-18T05:25:25.006Z,440
2024-02-18T05:26:26.763Z,439.9
2024-02-18T05:27:28.724Z,440.1
2024-02-18T05:28:30.587Z,440
2024-02-18T05:29:32.309Z,440
2024-02-18T05:30:34.344Z,440
2024-02-18T05:31:36.417Z,440.2
2024-02-18T05:32:39.057Z,440
2024-02-18T05:33:41.829Z,439.9
2024-02-18T05:34:44.913Z,439.9
2024-02-18T05:35:47.438Z,439.1
2024-02-18T05:36:49.674Z,439.7
2024-02-18T05:37:51.444Z,439.3
2024-02-18T05:38:53.255Z,439.4
2024-02-18T05:39:55.378Z,439.3
2024-02-18T05:40:57.249Z,439.2
2024-02-18T05:41:59.054Z,439.5
2024-02-18T05:43:01.290Z,439.5
2024-02-18T05:44:03.230Z,439.5
2024-02-18T05:45:05.316Z,439.3
2024-02-18T05:46:07.230Z,439.5
2024-02-18T05:47:09.417Z,439.2
2024-02-18T05:48:12.009Z,439.1
2024-02-18T05:49:14.914Z,438.8
2024-02-18T05:50:16.940Z,439.2
2024-02-18T05:51:18.670Z,439.2
2024-02-18T05:52:20.436Z,439.2
2024-02-18T05:53:22.219Z,438.7
2024-02-18T05:54:24.308Z,438.9
2024-02-18T05:55:26.102Z,439.2
2024-02-18T05:56:27.841Z,438.6
2024-02-18T05:57:30.070Z,438.6
2024-02-18T05:58:32.542Z,438.4
2024-02-18T05:59:34.565Z,438.2
2024-02-18T06:00:36.847Z,438
2024-02-18T06:01:39.514Z,437.6
2024-02-18T06:02:41.873Z,437.6
2024-02-18T06:03:44.066Z,437.7
2024-02-18T06:04:46.260Z,437.9
2024-02-18T06:05:48.456Z,437.8
2024-02-18T06:06:50.892Z,437.6
2024-02-18T06:07:53.109Z,437.4
2024-02-18T06:08:55.022Z,437.3
2024-02-18T06:09:57.409Z,437.2
2024-02-18T06:11:00.087Z,437.4
2024-02-18T06:12:02.611Z,437.6
2024-02-18T06:13:04.948Z,436.9
2024-02-18T06:14:06.880Z,436.6
2024-02-18T06:15:08.631Z,436.5
2024-02-18T06:16:10.923Z,436.1
2024-02-18T06:17:12.811Z,436.3
2024-02-18T06:18:15.551Z,435.8
2024-02-18T06:19:19.187Z,435.5
2024-02-18T06:20:21.062Z,435.6
2024-02-18T06:21:23.780Z,435.2
2024-02-18T06:22:25.688Z,435.6
2024-02-18T06:23:27.502Z,435.5
2024-02-18T06:24:30.967Z,435.4
2024-02-18T06:25:32.728Z,435.6
2024-02-18T06:26:34.552Z,435.9
2024-02-18T06:27:36.494Z,435.7
2024-02-18T06:28:38.327Z,435.8
2024-02-18T06:29:40.216Z,435.9
2024-02-18T06:30:42.490Z,435.4
2024-02-18T06:31:44.407Z,435.4
2024-02-18T06:32:46.245Z,435.1
2024-02-18T06:33:49.553Z,435.3
2024-02-18T06:34:52.498Z,435.3
2024-02-18T06:35:54.616Z,434.8
2024-02-18T06:36:56.750Z,435.2
2024-02-18T06:37:58.525Z,435.1
2024-02-18T06:39:00.287Z,435
2024-02-18T06:40:02.750Z,435
2024-02-18T06:41:04.681Z,434.7
2024-02-18T06:42:06.495Z,434.4
2024-02-18T06:43:09.198Z,434.7
2024-02-18T06:44:11.056Z,434.3
2024-02-18T06:45:12.889Z,434.8
2024-02-18T06:46:15.243Z,434.7
2024-02-18T06:47:17.276Z,434.7
2024-02-18T06:48:19.932Z,434.8
2024-02-18T06:49:22.526Z,434.7
2024-02-18T06:50:24.964Z,434.7
2024-02-18T06:51:27.311Z,434.5
2024-02-18T06:52:29.201Z,434.3
2024-02-18T06:53:31.000Z,434
2024-02-18T06:54:33.140Z,434
2024-02-18T06:55:34.970Z,434.2
2024-02-18T06:56:36.795Z,434.3
2024-02-18T06:57:39.259Z,434.4
2024-02-18T06:58:41.075Z,434.1
2024-02-18T06:59:42.841Z,434.6
2024-02-18T07:00:45.431Z,434.9
2024-02-18T07:01:47.699Z,435.1
2024-02-18T07:02:49.606Z,434.7
2024-02-18T07:03:51.550Z,434.7
2024-02-18T07:04:54.101Z,434.4
2024-02-18T07:05:56.350Z,434.5
2024-02-18T07:06:58.529Z,434.7
2024-02-18T07:08:00.383Z,434.7
2024-02-18T07:09:05.381Z,434.8
2024-02-18T07:10:08.706Z,435.1
2024-02-18T07:11:11.027Z,435.1
2024-02-18T07:12:12.846Z,434.3
2024-02-18T07:13:14.962Z,434.1
2024-02-18T07:14:16.809Z,434.8
2024-02-18T07:15:18.615Z,434.5
2024-02-18T07:16:20.404Z,434.3
2024-02-18T07:17:22.423Z,434.3
2024-02-18T07:18:25.091Z,434.2
2024-02-18T07:19:28.089Z,434.2
2024-02-18T07:20:30.150Z,434
2024-02-18T07:21:32.390Z,434
2024-02-18T07:22:34.497Z,434.1
2024-02-18T07:23:36.237Z,434.3
2024-02-18T07:24:38.095Z,434
2024-02-18T07:25:39.946Z,434.2
2024-02-18T07:26:41.755Z,434.3
2024-02-18T07:27:43.591Z,434.4
2024-02-18T07:28:45.390Z,434.5
2024-02-18T07:29:47.200Z,434.2
2024-02-18T07:30:49.243Z,434.3
2024-02-18T07:31:51.123Z,434.5
2024-02-18T07:32:53.569Z,434.4
2024-02-18T07:33:56.474Z,433.9
2024-02-18T07:34:59.248Z,434.1
2024-02-18T07:36:01.230Z,433.9
2024-02-18T07:37:03.495Z,434.2
2024-02-18T07:38:05.674Z,433.5
2024-02-18T07:39:07.491Z,433.7
2024-02-18T07:40:09.757Z,433.7
2024-02-18T07:41:11.734Z,433.5
2024-02-18T07:42:13.557Z,433.5
2024-02-18T07:43:15.592Z,433.1
2024-02-18T07:44:17.397Z,433.8
2024-02-18T07:45:19.148Z,433.9
2024-02-18T07:46:21.335Z,433.8
2024-02-18T07:47:23.770Z,434
2024-02-18T07:48:26.597Z,433.3
2024-02-18T07:49:29.360Z,433.6
2024-02-18T07:50:31.313Z,433.7
2024-02-18T07:51:33.631Z,433.8
2024-02-18T07:52:35.361Z,433.7
2024-02-18T07:53:37.122Z,434
2024-02-18T07:54:39.247Z,433.9
2024-02-18T07:55:41.014Z,434.2
2024-02-18T07:56:42.798Z,434.2
2024-02-18T07:57:44.821Z,434.2
2024-02-18T07:58:46.697Z,434.9
2024-02-18T07:59:48.460Z,434.6
2024-02-18T08:00:50.767Z,434.9
2024-02-18T08:01:53.336Z,435
2024-02-18T08:02:55.263Z,435
2024-02-18T08:03:57.593Z,434.8
2024-02-18T08:05:00.543Z,434.8
2024-02-18T08:06:02.724Z,435.4
2024-02-18T08:07:05.157Z,435.2
2024-02-18T08:08:07.597Z,434.8
2024-02-18T08:09:10.313Z,435
2024-02-18T08:10:12.519Z,434.5
2024-02-18T08:11:14.535Z,434.4
2024-02-18T08:12:16.469Z,434.6
2024-02-18T08:13:18.688Z,434.7
2024-02-18T08:14:20.600Z,434.4
2024-02-18T08:15:22.424Z,434.5
2024-02-18T08:16:24.270Z,434.7
2024-02-18T08:17:26.294Z,434.5
2024-02-18T08:18:28.960Z,434.5
2024-02-18T08:19:31.460Z,434.4
2024-02-18T08:20:33.335Z,434.6
2024-02-18T08:21:35.217Z,434.6
2024-02-18T08:22:37.744Z,434.4
2024-02-18T08:23:39.646Z,434.4
2024-02-18T08:24:41.938Z,434.6
2024-02-18T08:25:43.727Z,434.6
2024-02-18T08:26:45.520Z,434.4
2024-02-18T08:27:47.772Z,434.5
2024-02-18T08:28:49.610Z,434.3
2024-02-18T08:29:51.371Z,434.1
2024-02-18T08:30:53.335Z,434.1
2024-02-18T08:31:55.130Z,434.3
2024-02-18T08:32:57.337Z,434.5
2024-02-18T08:33:59.786Z,434.2
2024-02-18T08:35:02.729Z,434.5
2024-02-18T08:36:04.641Z,434.3
2024-02-18T08:37:06.838Z,434.4
2024-02-18T08:38:09.132Z,434.2
2024-02-18T08:39:10.972Z,434
2024-02-18T08:40:13.227Z,434.3
2024-02-18T08:41:15.124Z,434.2
2024-02-18T08:42:16.928Z,434.4
2024-02-18T08:43:18.940Z,434.3
2024-02-18T08:44:20.844Z,434.1
2024-02-18T08:45:22.627Z,434.3
2024-02-18T08:46:24.509Z,433.8
2024-02-18T08:47:26.745Z,434.2
2024-02-18T08:48:29.105Z,433.7
2024-02-18T08:49:31.682Z,433.8
2024-02-18T08:50:33.513Z,433.8
2024-02-18T08:51:35.580Z,433.5
2024-02-18T08:52:37.476Z,433.4
2024-02-18T08:53:39.852Z,433.6
2024-02-18T08:54:41.895Z,433.6
2024-02-18T08:55:44.018Z,433.6
2024-02-18T08:56:45.799Z,433.7
2024-02-18T08:57:47.812Z,433.9
2024-02-18T08:58:49.657Z,433.9
2024-02-18T08:59:51.443Z,433.6
2024-02-18T09:00:53.572Z,433.5
2024-02-18T09:01:56.002Z,433.5
2024-02-18T09:02:57.883Z,433.6
2024-02-18T09:04:00.059Z,432.9
2024-02-18T09:05:03.264Z,433.3
2024-02-18T09:06:05.358Z,433.2
2024-02-18T09:07:07.295Z,433
2024-02-18T09:08:09.132Z,433.2
2024-02-18T09:09:11.314Z,433.1
2024-02-18T09:10:13.680Z,432.9
2024-02-18T09:11:16.144Z,432.8
2024-02-18T09:12:18.071Z,432.7
2024-02-18T09:13:19.910Z,432.5
2024-02-18T09:14:21.679Z,432.6
2024-02-18T09:15:23.676Z,433
2024-02-18T09:16:25.578Z,432.6
2024-02-18T09:17:27.573Z,432.8
2024-02-18T09:18:30.730Z,432.6
2024-02-18T09:19:33.458Z,432.9
2024-02-18T09:20:35.470Z,432.8
2024-02-18T09:21:37.320Z,432.8
2024-02-18T09:22:39.304Z,432.9
2024-02-18T09:23:41.145Z,433
2024-02-18T09:24:43.562Z,433
2024-02-18T09:25:45.433Z,432.7
2024-02-18T09:26:47.251Z,432.8
2024-02-18T09:27:49.403Z,432.6
2024-02-18T09:28:51.576Z,432.4
2024-02-18T09:29:53.436Z,432.5
2024-02-18T09:30:55.609Z,432.8
2024-02-18T09:31:57.827Z,432.6
2024-02-18T09:32:59.632Z,431.9
2024-02-18T09:34:02.519Z,432.2
2024-02-18T09:35:05.746Z,432
2024-02-18T09:36:07.760Z,432.1
2024-02-18T09:37:10.227Z,432.2
2024-02-18T09:38:12.252Z,432.2
2024-02-18T09:39:14.098Z,432.3
2024-02-18T09:40:16.756Z,432.4
2024-02-18T09:41:18.665Z,432.1
2024-02-18T09:42:20.621Z,432.5
2024-02-18T09:43:22.320Z,432
2024-02-18T09:44:24.223Z,432.5
2024-02-18T09:45:26.530Z,432.5
2024-02-18T09:46:35.676Z,432.3
2024-02-18T09:47:38.032Z,432.8
2024-02-18T09:48:40.597Z,432.8
2024-02-18T09:49:43.264Z,432.9
2024-02-18T09:50:45.133Z,432.9
2024-02-18T09:51:47.224Z,433.4
2024-02-18T09:52:49.066Z,432.9
2024-02-18T09:53:50.914Z,433.2
2024-02-18T09:54:53.155Z,433.7
2024-02-18T09:55:55.364Z,433.4
2024-02-18T09:56:57.166Z,433.4
2024-02-18T09:57:59.383Z,433.9
2024-02-18T09:59:01.210Z,433.8
2024-02-18T10:00:03.030Z,433.9
2024-02-18T10:01:05.338Z,433.9
2024-02-18T10:02:07.701Z,434.1
2024-02-18T10:03:09.470Z,434.2
2024-02-18T10:04:11.740Z,434.1
2024-02-18T10:05:14.163Z,434.1
2024-02-18T10:06:16.510Z,434.5
2024-02-18T10:07:18.570Z,434.5
2024-02-18T10:08:20.386Z,434.5
2024-02-18T10:09:22.319Z,434.7
2024-02-18T10:10:24.107Z,434.9
2024-02-18T10:11:26.503Z,435.1
2024-02-18T10:12:28.484Z,434.9
2024-02-18T10:13:30.268Z,435.3
2024-02-18T10:14:32.044Z,435.4
2024-02-18T10:15:34.518Z,435.6
2024-02-18T10:16:36.334Z,435.9
2024-02-18T10:17:38.388Z,436.2
2024-02-18T10:18:40.818Z,435.8
2024-02-18T10:19:43.376Z,436.2
2024-02-18T10:20:45.249Z,436.2
2024-02-18T10:21:47.333Z,435.9
2024-02-18T10:22:49.098Z,435.9
2024-02-18T10:23:50.968Z,436.2
2024-02-18T10:24:53.097Z,436.2
2024-02-18T10:25:54.913Z,436
2024-02-18T10:26:57.176Z,436.5
2024-02-18T10:27:59.754Z,437
2024-02-18T10:29:01.703Z,436.7
2024-02-18T10:30:03.536Z,436.8
2024-02-18T10:31:06.060Z,436.7
2024-02-18T10:32:07.975Z,437.6
2024-02-18T10:33:10.059Z,437.8
2024-02-18T10:34:13.083Z,438.1
2024-02-18T10:35:15.858Z,438.1
2024-02-18T10:36:18.997Z,437.9
2024-02-18T10:37:21.250Z,438.4
2024-02-18T10:38:23.087Z,438.1
2024-02-18T10:39:25.219Z,438.9
2024-02-18T10:40:27.010Z,438.5
2024-02-18T10:41:29.062Z,438.8
2024-02-18T10:42:31.656Z,439.1
2024-02-18T10:43:33.430Z,439.1
2024-02-18T10:44:35.426Z,439.3
2024-02-18T10:45:37.343Z,439.2
2024-02-18T10:46:39.091Z,438.8
2024-02-18T10:47:41.066Z,439.3
2024-02-18T10:48:43.326Z,439.4
2024-02-18T10:49:46.254Z,439.7
2024-02-18T10:50:48.716Z,439.5
2024-02-18T10:51:51.135Z,439.5
2024-02-18T10:52:52.944Z,439.5
2024-02-18T10:53:54.684Z,440
2024-02-18T10:54:56.671Z,439.6
2024-02-18T10:56:01.108Z,439.6
2024-02-18T10:57:02.902Z,439.7
2024-02-18T10:58:05.205Z,439.9
2024-02-18T10:59:07.117Z,440.1
2024-02-18T11:00:08.959Z,439.9
2024-02-18T11:01:11.490Z,439.9
2024-02-18T11:02:13.420Z,440.1
2024-02-18T11:03:15.262Z,440
2024-02-18T11:04:17.561Z,440
2024-02-18T11:05:19.931Z,439.8
2024-02-18T11:06:22.582Z,440
2024-02-18T11:07:25.347Z,440.3
2024-02-18T11:08:27.262Z,439.9
2024-02-18T11:09:29.187Z,440
2024-02-18T11:10:31.102Z,440.1
2024-02-18T11:11:33.120Z,440.2
2024-02-18T11:12:35.286Z,440.1
2024-02-18T11:13:37.426Z,440.2
2024-02-18T11:14:39.183Z,440.4
2024-02-18T11:15:41.487Z,440.4
2024-02-18T11:16:43.415Z,440.5
2024-02-18T11:17:45.341Z,440.3
2024-02-18T11:18:47.713Z,440.8
2024-02-18T11:19:50.602Z,440.5
2024-02-18T11:20:52.566Z,441
2024-02-18T11:21:54.744Z,440.9
2024-02-18T11:22:56.583Z,440.9
2024-02-18T11:23:58.408Z,441.1
2024-02-18T11:25:00.565Z,441.1
2024-02-18T11:26:02.420Z,441.4
2024-02-18T11:27:04.285Z,441.5
2024-02-18T11:28:06.711Z,441.3
2024-02-18T11:29:08.852Z,441.2
2024-02-18T11:30:10.677Z,441.5
2024-02-18T11:31:13.116Z,441.6
2024-02-18T11:32:14.940Z,441.9
2024-02-18T11:33:17.309Z,441.7
2024-02-18T11:34:19.687Z,441.7
2024-02-18T11:35:22.060Z,441.4
2024-02-18T11:36:24.013Z,441.6
2024-02-18T11:37:25.785Z,441.6
2024-02-18T11:38:27.564Z,441.6
2024-02-18T11:39:29.680Z,441.8
2024-02-18T11:40:31.511Z,441.7
2024-02-18T11:41:33.490Z,441.9
2024-02-18T11:42:35.488Z,441.5
2024-02-18T11:43:37.300Z,442
2024-02-18T11:44:39.593Z,441.8
2024-02-18T11:45:41.600Z,441.8
2024-02-18T11:46:43.631Z,441.6
2024-02-18T11:47:45.891Z,441.5
2024-02-18T11:48:48.626Z,442
2024-02-18T11:49:51.184Z,442
2024-02-18T11:50:53.196Z,441.8
2024-02-18T11:51:55.415Z,441.9
2024-02-18T11:52:57.316Z,442
2024-02-18T11:53:59.074Z,442.1
2024-02-18T11:55:01.191Z,442.7
2024-02-18T11:56:03.068Z,442.4
2024-02-18T11:57:05.170Z,442.6
2024-02-18T11:58:07.806Z,442.5
2024-02-18T11:59:09.772Z,442.4
2024-02-18T12:00:12.275Z,442.5
2024-02-18T12:01:14.643Z,442.5
2024-02-18T12:02:16.706Z,442.4
2024-02-18T12:03:18.446Z,442.7
2024-02-18T12:04:20.631Z,442.6
2024-02-18T12:05:23.803Z,442.5
2024-02-18T12:06:26.866Z,442.4
2024-02-18T12:07:30.026Z,442.4
2024-02-18T12:08:31.899Z,442.9
2024-02-18T12:09:33.825Z,442.9
2024-02-18T12:10:40.288Z,443
2024-02-18T12:11:42.220Z,443.5
2024-02-18T12:12:44.116Z,443.1
2024-02-18T12:13:46.085Z,443.3
2024-02-18T12:14:47.833Z,443
2024-02-18T12:15:50.213Z,443.4
2024-02-18T12:16:52.087Z,443.8
2024-02-18T12:17:56.178Z,443.3
2024-02-18T12:18:59.021Z,443.2
2024-02-18T12:20:01.786Z,443.2
2024-02-18T12:21:03.793Z,443.6
2024-02-18T12:22:05.898Z,443.7
2024-02-18T12:23:07.830Z,443.8
2024-02-18T12:24:09.588Z,443.8
2024-02-18T12:25:11.765Z,443.9
2024-02-18T12:26:13.640Z,444.1
2024-02-18T12:27:15.460Z,443.9
2024-02-18T12:28:17.825Z,443.8
2024-02-18T12:29:19.693Z,444
2024-02-18T12:30:21.461Z,444.1
2024-02-18T12:31:23.512Z,444.3
2024-02-18T12:32:25.393Z,444.2
2024-02-18T12:33:28.104Z,444.4
2024-02-18T12:34:30.639Z,444.2
2024-02-18T12:35:32.504Z,444.7
2024-02-18T12:36:34.546Z,444.5
2024-02-18T12:37:37.806Z,444.6
2024-02-18T12:38:42.157Z,444.6
2024-02-18T12:39:44.098Z,444.5
2024-02-18T12:40:45.971Z,445
2024-02-18T12:41:47.778Z,444.6
2024-02-18T12:45:05.052Z,444.6
2024-02-18T12:46:41.901Z,444.9
2024-02-18T12:47:44.902Z,444.8
2024-02-18T12:48:47.686Z,444.6
2024-02-18T12:49:50.272Z,444.5
2024-02-18T12:50:52.687Z,444.5
2024-02-18T12:51:54.795Z,444.5
2024-02-18T12:52:56.589Z,444.6
2024-02-18T12:53:58.398Z,444.6
2024-02-18T12:55:00.457Z,444.5
2024-02-18T12:56:02.701Z,444.8
2024-02-18T12:57:04.470Z,445.2
2024-02-18T12:58:07.767Z,445
2024-02-18T12:59:09.782Z,445
2024-02-18T13:00:11.579Z,444.7
2024-02-18T13:01:14.265Z,445.2
2024-02-18T13:02:16.488Z,445
2024-02-18T13:03:18.387Z,444.9
2024-02-18T13:04:20.625Z,445.3
2024-02-18T13:05:22.760Z,445.3
2024-02-18T13:06:25.070Z,445.3
2024-02-18T13:07:27.067Z,445.2
2024-02-18T13:08:28.851Z,445
2024-02-18T13:09:31.023Z,445.3
2024-02-18T13:10:32.868Z,445.3
2024-02-18T13:11:34.774Z,445.3
2024-02-18T13:12:36.832Z,445
2024-02-18T13:13:38.741Z,445.1
2024-02-18T13:14:40.531Z,445.3
2024-02-18T13:15:42.421Z,445.2
2024-02-18T13:16:44.253Z,445.5
2024-02-18T13:17:46.484Z,445.1
2024-02-18T13:18:48.791Z,445.1
2024-02-18T13:19:51.130Z,445.1
2024-02-18T13:20:53.009Z,445.3
2024-02-18T13:21:55.115Z,445.2
2024-02-18T13:22:59.612Z,445
2024-02-18T13:24:04.402Z,445.1
2024-02-18T13:25:06.401Z,445.2
2024-02-18T13:26:08.189Z,445.1
2024-02-18T13:27:10.457Z,444.8
2024-02-18T13:28:12.978Z,445.3